DLH4LY EPKK-EDDM
Flight info
| Callsign | DLH4LY |
|---|---|
| Flight time | N/A |
| Altitude | 32000 |
| Route | ADADO DCT UTEVO DCT VOZ DCT BAVRI/N0431F300 T110 BINGU T108 LANDU LANDU2A |
| Aircraft | A320/M-SDE3FGHIRWY/LB1 |
Departure
| Time | 2026-05-08 06:56 |
|---|---|
| Airport | Kraków John Paul II International Airport (EPKK) |
Arrival
| Time | N/A |
|---|---|
| Airport | Munich Airport (EDDM) |
| Time | Latitude | Longitude | Altitude | Speed | Heading |
|---|---|---|---|---|---|
| 2026-05-08 06:36 | 50.07327 | 19.80107 | 800 ft | 0 kts | 167° |
| 2026-05-08 06:48 | 50.07346 | 19.80100 | 800 ft | 4 kts | 165° |
| 2026-05-08 06:48 | 50.07372 | 19.80087 | 800 ft | 4 kts | 156° |
| 2026-05-08 06:48 | 50.07394 | 19.80067 | 800 ft | 4 kts | 129° |
| 2026-05-08 06:48 | 50.07401 | 19.80041 | 800 ft | 0 kts | 78° |
| 2026-05-08 06:50 | 50.07405 | 19.80070 | 800 ft | 7 kts | 77° |
| 2026-05-08 06:51 | 50.07418 | 19.80157 | 800 ft | 8 kts | 78° |
| 2026-05-08 06:51 | 50.07429 | 19.80244 | 800 ft | 8 kts | 78° |
| 2026-05-08 06:51 | 50.07443 | 19.80339 | 800 ft | 10 kts | 71° |
| 2026-05-08 06:51 | 50.07500 | 19.80393 | 800 ft | 10 kts | 18° |
| 2026-05-08 06:52 | 50.07568 | 19.80422 | 800 ft | 11 kts | 9° |
| 2026-05-08 06:52 | 50.07642 | 19.80403 | 800 ft | 11 kts | 347° |
| 2026-05-08 06:52 | 50.07720 | 19.80379 | 800 ft | 12 kts | 348° |
| 2026-05-08 06:52 | 50.07806 | 19.80349 | 800 ft | 13 kts | 348° |
| 2026-05-08 06:53 | 50.07903 | 19.80318 | 800 ft | 15 kts | 349° |
| 2026-05-08 06:53 | 50.08006 | 19.80262 | 800 ft | 17 kts | 310° |
| 2026-05-08 06:53 | 50.08009 | 19.80162 | 800 ft | 0 kts | 259° |
| 2026-05-08 06:55 | 50.08003 | 19.80119 | 801 ft | 15 kts | 259° |
| 2026-05-08 06:55 | 50.07946 | 19.79721 | 801 ft | 71 kts | 257° |
| 2026-05-08 06:55 | 50.07794 | 19.78626 | 801 ft | 132 kts | 258° |
| 2026-05-08 06:55 | 50.07574 | 19.77033 | 1139 ft | 154 kts | 258° |
| 2026-05-08 06:56 | 50.07344 | 19.75404 | 1969 ft | 155 kts | 258° |
| 2026-05-08 06:56 | 50.07095 | 19.73664 | 2503 ft | 174 kts | 258° |
| 2026-05-08 06:56 | 50.06824 | 19.71727 | 2937 ft | 192 kts | 258° |
| 2026-05-08 06:56 | 50.06528 | 19.69620 | 3340 ft | 210 kts | 259° |
| 2026-05-08 06:57 | 50.06197 | 19.67290 | 3620 ft | 237 kts | 258° |
| 2026-05-08 06:57 | 50.05832 | 19.64662 | 4227 ft | 256 kts | 258° |
| 2026-05-08 06:57 | 50.05450 | 19.61917 | 5118 ft | 262 kts | 259° |
| 2026-05-08 06:57 | 50.05057 | 19.59125 | 5991 ft | 266 kts | 258° |
| 2026-05-08 06:58 | 50.04657 | 19.56295 | 6863 ft | 270 kts | 258° |
| 2026-05-08 06:58 | 50.04252 | 19.53436 | 7854 ft | 272 kts | 258° |
| 2026-05-08 06:58 | 50.03839 | 19.50543 | 8780 ft | 275 kts | 258° |
| 2026-05-08 06:58 | 50.03423 | 19.47635 | 9628 ft | 277 kts | 258° |
| 2026-05-08 06:59 | 50.03004 | 19.44693 | 10387 ft | 282 kts | 258° |
| 2026-05-08 06:59 | 50.02732 | 19.41558 | 10645 ft | 304 kts | 268° |
| 2026-05-08 06:59 | 50.02882 | 19.38165 | 10948 ft | 323 kts | 279° |
| 2026-05-08 06:59 | 50.03254 | 19.34678 | 11575 ft | 329 kts | 278° |
| 2026-05-08 07:00 | 50.03617 | 19.31136 | 12296 ft | 333 kts | 278° |
| 2026-05-08 07:00 | 50.03974 | 19.27564 | 13020 ft | 336 kts | 278° |
| 2026-05-08 07:00 | 50.04331 | 19.23955 | 13732 ft | 339 kts | 278° |
| 2026-05-08 07:00 | 50.04688 | 19.20310 | 14365 ft | 342 kts | 277° |
| 2026-05-08 07:01 | 50.05049 | 19.16632 | 14900 ft | 346 kts | 277° |
| 2026-05-08 07:01 | 50.05413 | 19.12933 | 15048 ft | 346 kts | 277° |
| 2026-05-08 07:01 | 50.05777 | 19.09234 | 15078 ft | 345 kts | 277° |
| 2026-05-08 07:01 | 50.06139 | 19.05541 | 15074 ft | 345 kts | 277° |
| 2026-05-08 07:02 | 50.06495 | 19.01900 | 15079 ft | 344 kts | 278° |
| 2026-05-08 07:02 | 50.06854 | 18.98230 | 15079 ft | 343 kts | 278° |
| 2026-05-08 07:02 | 50.07213 | 18.94557 | 15088 ft | 343 kts | 278° |
| 2026-05-08 07:02 | 50.07571 | 18.90886 | 15082 ft | 343 kts | 278° |
| 2026-05-08 07:03 | 50.07926 | 18.87215 | 15082 ft | 343 kts | 278° |
| 2026-05-08 07:03 | 50.08278 | 18.83539 | 15087 ft | 343 kts | 278° |
| 2026-05-08 07:03 | 50.08629 | 18.79865 | 15087 ft | 343 kts | 278° |
| 2026-05-08 07:03 | 50.09017 | 18.76187 | 15280 ft | 347 kts | 280° |
| 2026-05-08 07:04 | 50.09516 | 18.72497 | 15971 ft | 348 kts | 282° |
| 2026-05-08 07:04 | 50.10070 | 18.68811 | 16621 ft | 351 kts | 283° |
| 2026-05-08 07:04 | 50.10647 | 18.65105 | 17226 ft | 354 kts | 283° |
| 2026-05-08 07:04 | 50.11229 | 18.61354 | 17849 ft | 357 kts | 283° |
| 2026-05-08 07:05 | 50.11800 | 18.57574 | 18470 ft | 360 kts | 283° |
| 2026-05-08 07:05 | 50.12363 | 18.53767 | 19018 ft | 362 kts | 283° |
| 2026-05-08 07:05 | 50.12923 | 18.49932 | 19587 ft | 363 kts | 283° |
| 2026-05-08 07:05 | 50.13447 | 18.46118 | 20111 ft | 365 kts | 281° |
| 2026-05-08 07:06 | 50.13906 | 18.42204 | 20640 ft | 367 kts | 280° |
| 2026-05-08 07:06 | 50.14321 | 18.38266 | 21155 ft | 369 kts | 279° |
| 2026-05-08 07:06 | 50.14721 | 18.34301 | 21671 ft | 371 kts | 279° |
| 2026-05-08 07:06 | 50.15124 | 18.30315 | 22179 ft | 373 kts | 279° |
| 2026-05-08 07:07 | 50.15540 | 18.26295 | 22680 ft | 375 kts | 279° |
| 2026-05-08 07:07 | 50.15963 | 18.22276 | 23176 ft | 377 kts | 279° |
| 2026-05-08 07:07 | 50.16394 | 18.18234 | 23655 ft | 379 kts | 280° |
| 2026-05-08 07:07 | 50.16828 | 18.14170 | 24055 ft | 381 kts | 279° |
| 2026-05-08 07:08 | 50.17265 | 18.10084 | 24447 ft | 383 kts | 279° |
| 2026-05-08 07:08 | 50.17700 | 18.05976 | 24840 ft | 385 kts | 279° |
| 2026-05-08 07:08 | 50.18138 | 18.01846 | 25230 ft | 387 kts | 279° |
| 2026-05-08 07:08 | 50.18577 | 17.97699 | 25606 ft | 389 kts | 279° |
| 2026-05-08 07:09 | 50.19017 | 17.93512 | 25977 ft | 391 kts | 279° |
| 2026-05-08 07:10 | 50.19365 | 17.89711 | 26309 ft | 392 kts | 278° |
| 2026-05-08 07:10 | 50.19776 | 17.85488 | 26686 ft | 394 kts | 279° |
| 2026-05-08 07:10 | 50.20220 | 17.81249 | 27046 ft | 396 kts | 279° |
| 2026-05-08 07:10 | 50.20681 | 17.76999 | 27397 ft | 398 kts | 279° |
| 2026-05-08 07:11 | 50.20950 | 17.72682 | 27718 ft | 400 kts | 271° |
| 2026-05-08 07:11 | 50.20979 | 17.68321 | 28055 ft | 403 kts | 271° |
| 2026-05-08 07:11 | 50.20990 | 17.63933 | 28380 ft | 405 kts | 270° |
| 2026-05-08 07:11 | 50.20992 | 17.59576 | 28709 ft | 407 kts | 270° |
| 2026-05-08 07:12 | 50.20983 | 17.55135 | 29041 ft | 409 kts | 268° |
| 2026-05-08 07:12 | 50.20652 | 17.50721 | 29353 ft | 411 kts | 259° |
| 2026-05-08 07:12 | 50.19846 | 17.46413 | 29652 ft | 415 kts | 251° |
| 2026-05-08 07:12 | 50.18821 | 17.42245 | 29938 ft | 416 kts | 251° |
| 2026-05-08 07:13 | 50.17783 | 17.38010 | 30224 ft | 418 kts | 251° |
| 2026-05-08 07:13 | 50.16746 | 17.33760 | 30460 ft | 420 kts | 251° |
| 2026-05-08 07:13 | 50.15709 | 17.29494 | 30682 ft | 422 kts | 251° |
| 2026-05-08 07:13 | 50.14661 | 17.25192 | 30917 ft | 424 kts | 250° |
| 2026-05-08 07:14 | 50.13607 | 17.20883 | 31171 ft | 425 kts | 250° |
| 2026-05-08 07:14 | 50.12554 | 17.16587 | 31484 ft | 424 kts | 250° |
| 2026-05-08 07:14 | 50.11495 | 17.12288 | 31791 ft | 424 kts | 250° |
| 2026-05-08 07:14 | 50.10432 | 17.07992 | 32044 ft | 425 kts | 250° |
| 2026-05-08 07:15 | 50.08355 | 16.99628 | 32077 ft | 411 kts | 250° |
| 2026-05-08 07:15 | 50.06309 | 16.91363 | 32081 ft | 407 kts | 250° |
| 2026-05-08 07:16 | 50.04263 | 16.83134 | 32085 ft | 407 kts | 250° |
| 2026-05-08 07:16 | 50.03587 | 16.80413 | 32084 ft | 407 kts | 250° |